• Join FlightAware (Why Join?)
  • Login
  • US Flag 
09:14AM EDT


 

Airport Tracker/Info


-or-


 

Live Flight TrackerFlight Track Log ✈ SWA193 ✈ 26-Apr-2013 ✈ KFLL - KISP

Flight Track Log - Related Links

Times and Time Zones

All times are in EDT time to prevent confusion due to time zone crossing. See the SWA193 flight status page for this flight to view local times or setup timezone preferences in your user account.

Time Position Orientation Groundspeed Altitude Reporting Facility
EDT Latitude Longitude Course Direction KTS MPH feet Rate Location/Type
07:46AM 26.0750 -80.1319 86° East 145 167 900  Level Miami Center
07:47AM 26.0783 -80.0767 86° East 208 239 2,800 2,520 Climbing Miami Center
07:48AM 26.0864 -79.9958 84° East 258 297 6,300 3,300 Climbing Miami Center
07:49AM 26.1131 -79.9225 68° East 263 303 9,700 2,820 Climbing Miami Center
07:50AM 26.1564 -79.8428 59° Northeast 271 312 12,000 2,400 Climbing Miami Center
07:51AM 26.2083 -79.7514 58° Northeast 306 352 14,600 2,820 Climbing Miami Center
07:52AM 26.2625 -79.6553 58° Northeast 343 395 17,700 2,700 Climbing Miami Center
07:53AM 26.3308 -79.5689 49° Northeast 373 429 20,100 2,160 Climbing Miami Center
07:54AM 26.4156 -79.5083 33° Northeast 380 437 22,100 2,100 Climbing Miami Center
07:55AM 26.5236 -79.4294 33° Northeast 406 467 24,400 2,100 Climbing Miami Center
07:56AM 26.6250 -79.3619 31° Northeast 420 483 26,400 1,920 Climbing Miami Center
07:57AM 26.7308 -79.2872 32° Northeast 431 496 28,300 1,800 Climbing Miami Center
07:58AM 26.8364 -79.2103 33° Northeast 437 503 30,000 1,800 Climbing Miami Center
07:59AM 26.9400 -79.1308 34° Northeast 442 509 31,900 1,740 Climbing Miami Center
08:00AM 27.0497 -79.0583 30° Northeast 448 516 33,500 1,440 Climbing Miami Center
08:01AM 27.1428 -78.9878 34° Northeast 448 516 34,800 1,440 Climbing Miami Center
08:02AM 27.2589 -78.9033 33° Northeast 448 516 36,400 1,740 Climbing Miami Center
08:03AM 27.3600 -78.8281 33° Northeast 443 510 38,300 1,260 Climbing Miami Center
08:04AM 27.4714 -78.7878 18° North 417 480 39,000 300 Climbing Miami Center
08:05AM 27.5739 -78.7731 North 397 457 39,000  Level Miami Center
08:06AM 27.6950 -78.7564 North 402 463 39,000  Level Miami Center
08:07AM 27.8081 -78.7394 North 407 468 39,000  Level Miami Center
08:08AM 27.9189 -78.7225 North 407 468 39,000  Level Miami Center
08:09AM 28.0278 -78.7078 North 401 461 39,000  Level Miami Center
08:10AM 28.1386 -78.6931 North 401 461 39,000  Level Miami Center
08:11AM 28.2536 -78.6739 North 401 461 39,000  Level Miami Center
08:12AM 28.3625 -78.6592 North 401 461 39,000  Level Miami Center
08:13AM 28.4733 -78.6419 North 401 461 39,000  Level Miami Center
08:14AM 28.5842 -78.6247 North 406 467 39,000  Level Miami Center
08:15AM 28.6928 -78.6075 North 406 467 39,000  Level Miami Center
08:16AM 28.8097 -78.5953 North 406 467 39,000  Level Miami Center
08:17AM 28.9164 -78.5778 North 401 461 39,000  Level Miami Center
08:18AM 29.0253 -78.5581 North 401 461 39,000  Level Miami Center
08:19AM 29.1400 -78.5433 North 401 461 39,000  Level Miami Center
08:20AM 29.2508 -78.5283 North 402 463 39,000  Level Miami Center
08:21AM 29.3700 -78.5136 North 409 471 39,000  Level Miami Center
08:22AM 29.4725 -78.4936 10° North 403 464 39,000  Level Miami Center
08:23AM 29.5853 -78.4761 North 408 470 39,000  Level Miami Center
08:24AM 29.6981 -78.4611 North 400 460 39,000  Level Miami Center
08:24AM 29.7383 -78.4489 15° North 404 465 39,000  Level Jacksonville Center
08:25AM 29.8503 -78.4317 North 410 472 39,000  Level Jacksonville Center
08:26AM 29.9639 -78.3978 14° North 411 473 39,000  Level Jacksonville Center
08:27AM 30.0733 -78.3636 15° North 415 478 39,000  Level Jacksonville Center
08:28AM 30.1889 -78.3294 14° North 418 481 39,000  Level Jacksonville Center
08:29AM 30.2817 -78.2939 18° North 412 474 39,000  Level Jacksonville Center
08:30AM 30.3972 -78.2569 15° North 412 474 39,000  Level Jacksonville Center
08:31AM 30.5022 -78.2181 18° North 406 467 39,000  Level Jacksonville Center
08:32AM 30.6219 -78.1833 14° North 417 480 39,000  Level Jacksonville Center
08:33AM 30.7356 -78.1464 16° North 410 472 39,000  Level Jacksonville Center
08:34AM 30.8447 -78.1069 17° North 410 472 39,000  Level Jacksonville Center
08:35AM 30.9581 -78.0722 15° North 416 479 39,000  Level Jacksonville Center
08:36AM 31.0692 -78.0300 18° North 416 479 39,000  Level Jacksonville Center
08:37AM 31.1800 -77.9831 20° North 416 479 39,000  Level Jacksonville Center
08:38AM 31.2933 -77.9456 16° North 416 479 39,000  Level Jacksonville Center
08:39AM 31.4031 -77.9178 12° North 416 479 39,000  Level Jacksonville Center
08:40AM 31.5142 -77.8778 17° North 411 473 39,000  Level Jacksonville Center
08:41AM 31.6250 -77.8303 20° North 411 473 39,000  Level Jacksonville Center
08:42AM 31.7361 -77.7950 15° North 411 473 39,000  Level Jacksonville Center
08:43AM 31.8497 -77.7594 15° North 411 473 39,000  Level Jacksonville Center
08:44AM 31.9608 -77.7261 14° North 411 473 39,000  Level Jacksonville Center
08:45AM 32.0739 -77.6831 18° North 411 473 39,000  Level Jacksonville Center
08:46AM 32.1872 -77.6472 15° North 411 473 39,000  Level Jacksonville Center
08:47AM 32.2983 -77.6064 17° North 411 473 39,000  Level Jacksonville Center
08:48AM 32.4114 -77.5678 16° North 411 473 39,000  Level Jacksonville Center
08:49AM 32.5247 -77.5292 16° North 411 473 39,000  Level Jacksonville Center
08:50AM 32.6481 -77.4875 16° North 419 482 39,000  Level Jacksonville Center
08:51AM 32.7589 -77.4461 17° North 419 482 39,000  Level Jacksonville Center
08:52AM 32.8700 -77.4072 16° North 419 482 39,000  Level Jacksonville Center
08:53AM 32.9842 -77.3689 16° North 415 478 39,000  Level Washington Center
08:54AM 33.0933 -77.3292 17° North 393 452 39,000  Level Washington Center
08:55AM 33.2044 -77.2892 17° North 404 465 39,000  Level Washington Center
08:56AM 33.3175 -77.2517 15° North 409 471 39,000  Level Washington Center
08:57AM 33.4308 -77.2142 15° North 409 471 39,000  Level Washington Center
08:58AM 33.5461 -77.1717 17° North 420 483 39,000  Level Washington Center
08:59AM 33.6614 -77.1289 17° North 420 483 39,000  Level Washington Center
09:00AM 33.7786 -77.0886 16° North 420 483 39,000  Level Washington Center
09:01AM 33.8958 -77.0456 17° North 425 489 39,000  Level Washington Center
09:02AM 34.0133 -77.0025 17° North 431 496 39,000  Level Washington Center
09:03AM 34.1306 -76.9594 17° North 431 496 39,000  Level Washington Center
09:04AM 34.2500 -76.9186 16° North 437 503 39,000  Level Washington Center
09:05AM 34.3672 -76.8778 16° North 437 503 39,000  Level Washington Center
09:06AM 34.4825 -76.8317 18° North 437 503 39,000  Level Washington Center
09:07AM 34.5978 -76.7906 16° North 437 503 39,000  Level Washington Center
09:08AM 34.7128 -76.7494 16° North 437 503 39,000  Level Washington Center
09:09AM 34.8258 -76.7103 16° North 427 491 39,000  Level Washington Center
09:10AM 34.9411 -76.6639 18° North 427 491 39,000  Level Washington Center
09:11AM 35.0561 -76.6247 16° North 422 486 39,000  Level Washington Center
09:12AM 35.1567 -76.5853 18° North 422 486 39,000  Level Washington Center
09:13AM 35.2739 -76.5436 16° North 422 486 39,000  Level Washington Center
09:14AM 35.3911 -76.4967 18° North 429 494 39,000  Level Washington Center
09:15AM 35.5061 -76.4494 18° North 429 494 39,000  Level Washington Center
09:16AM 35.6233 -76.4097 15° North 429 494 39,000  Level Washington Center
09:17AM 35.7383 -76.3647 18° North 429 494 39,000  Level Washington Center
09:18AM 35.8533 -76.3225 17° North 429 494 39,000  Level Washington Center
09:19AM 35.9706 -76.2772 17° North 429 494 39,000  Level Washington Center
09:20AM 36.0875 -76.2319 17° North 429 494 39,000  Level Washington Center
09:21AM 36.2067 -76.1892 16° North 429 494 39,000  Level Washington Center
09:22AM 36.3217 -76.1461 17° North 429 494 39,000  Level Washington Center
09:23AM 36.4367 -76.1031 17° North 429 494 39,000  Level Washington Center
09:24AM 36.5494 -76.0572 18° North 429 494 39,000  Level Washington Center
09:25AM 36.6622 -76.0139 17° North 418 481 39,000  Level Washington Center
09:26AM 36.7875 -75.9653 17° North 418 481 39,000  Level Washington Center
09:27AM 36.9067 -75.9167 18° North 423 487 39,000  Level Washington Center
09:28AM 37.0256 -75.8756 15° North 429 494 39,000  Level Washington Center
09:29AM 37.1406 -75.8317 17° North 429 494 39,000  Level Washington Center
09:30AM 37.2553 -75.7850 18° North 429 494 39,000  Level Washington Center
09:31AM 37.3700 -75.7408 17° North 429 494 39,000  Level Washington Center
09:32AM 37.4828 -75.6967 17° North 429 494 39,000  Level Washington Center
09:33AM 37.5975 -75.6494 18° North 424 488 39,000  Level Washington Center
09:34AM 37.7122 -75.6050 17° North 424 488 39,000  Level Washington Center
09:35AM 37.8269 -75.5575 18° North 424 488 39,000  Level Washington Center
09:36AM 37.9417 -75.5128 17° North 424 488 39,000  Level Washington Center
09:37AM 38.0564 -75.4678 17° North 424 488 39,000  Level Washington Center
09:38AM 38.1731 -75.3989 25° Northeast 430 495 39,000  Level Washington Center
09:39AM 38.2811 -75.3272 27° Northeast 435 501 39,000  Level Washington Center
09:40AM 38.3936 -75.2525 27° Northeast 446 513 39,000  Level Washington Center
09:41AM 38.5061 -75.1778 27° Northeast 446 513 39,000  Level Washington Center
09:42AM 38.6183 -75.1133 24° Northeast 446 513 39,000  Level Washington Center
09:43AM 38.7306 -75.0381 28° Northeast 446 513 39,000  Level Washington Center
09:44AM 38.8428 -74.9653 27° Northeast 446 513 39,000 -840 Level Washington Center
09:45AM 38.9569 -74.8897 27° Northeast 446 513 37,400 -2,220 Descending Washington Center
09:46AM 39.0669 -74.8189 27° Northeast 446 513 34,600 -2,880 Descending Washington Center
09:48AM 39.2103 -74.6319 45° Northeast 486 559 30,100 -2,640 Descending New York Center
09:49AM 39.2872 -74.5075 51° Northeast 459 528 27,800 -2,280 Descending New York Center
09:50AM 39.3639 -74.3878 50° Northeast 444 511 25,600 -2,220 Descending New York Center
09:51AM 39.4361 -74.2758 50° Northeast 423 487 23,400 -2,160 Descending New York Center
09:52AM 39.5081 -74.1667 49° Northeast 407 468 21,300 -1,380 Descending New York Center
09:53AM 39.5758 -74.0567 51° Northeast 396 456 20,700 -840 Descending New York Center
09:54AM 39.6456 -73.9494 50° Northeast 390 449 19,700 -1,020 Descending New York Center
09:55AM 39.7131 -73.8444 50° Northeast 385 443 18,700 -840 Descending New York Center
09:56AM 39.7783 -73.7394 51° Northeast 385 443 18,100 -840 Descending New York Center
09:57AM 39.8456 -73.6342 50° Northeast 380 437 17,100 -1,020 Descending New York Center
09:59AM 39.9764 -73.4553 46° Northeast 368 423 15,200 -780 Descending Boston Center
10:00AM 40.0481 -73.3697 42° Northeast 355 409 14,800 -1,140 Descending Boston Center
10:01AM 40.1236 -73.2814 42° Northeast 350 403 13,000 -1,920 Descending Boston Center
10:02AM 40.1931 -73.1981 42° Northeast 344 396 11,000 -1,980 Descending Boston Center
10:03AM 40.2625 -73.1144 43° Northeast 344 396 9,100 -1,020 Descending Boston Center
10:04AM 40.3275 -73.0361 43° Northeast 334 384 9,000 -120 Descending Boston Center
10:05AM 40.3925 -72.9578 43° Northeast 322 371 8,900 -1,020 Descending Boston Center
10:07AM 40.5333 -72.8333 34° Northeast 286 329 5,900 -1,380 Descending New York TRACON
10:08AM 40.5833 -72.9000 315° West 266 306 4,600 -1,200 Descending New York TRACON
10:09AM 40.6167 -72.9667 303° West 253 291 3,500 -960 Descending New York TRACON
10:10AM 40.6667 -73.0500 308° West 249 287 2,700 -480 Descending New York TRACON
10:11AM 40.7000 -73.1167 303° West 200 230 2,600 -420 Descending New York TRACON
10:12AM 40.7167 -73.1500 303° West 146 168 1,900 -840 Descending New York TRACON
10:13AM 40.7500 -73.1500 360° North 136 157 1,000 -900 Descending New York TRACON
10:14AM 40.7833 -73.1167 37° Northeast 135 155 200 -840 Descending New York TRACON